createdAt,value
2022-11-16T00:01:39.776Z,15.20
2022-11-16T00:04:11.825Z,15.20
2022-11-16T00:06:39.808Z,15.10
2022-11-16T00:09:27.152Z,15.20
2022-11-16T00:11:56.968Z,15.30
2022-11-16T00:14:26.758Z,15.30
2022-11-16T00:16:55.428Z,15.30
2022-11-16T00:19:25.431Z,15.30
2022-11-16T00:21:53.300Z,15.30
2022-11-16T00:24:23.308Z,15.20
2022-11-16T00:26:51.782Z,15.20
2022-11-16T00:29:21.557Z,15.30
2022-11-16T00:31:49.697Z,15.30
2022-11-16T00:34:18.320Z,15.20
2022-11-16T00:36:47.900Z,15.30
2022-11-16T00:39:16.642Z,15.40
2022-11-16T00:41:44.834Z,15.40
2022-11-16T00:44:12.894Z,15.40
2022-11-16T00:46:40.871Z,15.30
2022-11-16T00:49:08.707Z,15.30
2022-11-16T00:51:38.120Z,15.30
2022-11-16T00:54:09.085Z,15.30
2022-11-16T00:56:37.459Z,15.40
2022-11-16T00:59:05.444Z,15.40
2022-11-16T01:01:33.278Z,15.20
2022-11-16T01:04:01.081Z,15.20
2022-11-16T01:06:28.886Z,15.10
2022-11-16T01:08:56.818Z,15.10
2022-11-16T01:11:43.730Z,15.20
2022-11-16T01:14:11.577Z,15.20
2022-11-16T01:16:39.344Z,15.20
2022-11-16T01:19:08.433Z,15.20
2022-11-16T01:21:36.268Z,15.20
2022-11-16T01:24:04.151Z,15.20
2022-11-16T01:26:33.308Z,15.30
2022-11-16T01:29:01.141Z,15.20
2022-11-16T01:31:28.975Z,15.20
2022-11-16T01:33:56.769Z,15.10
2022-11-16T01:36:24.538Z,15.20
2022-11-16T01:38:52.295Z,15.10
2022-11-16T01:41:21.544Z,15.10
2022-11-16T01:58:58.709Z,15.10
2022-11-16T02:01:26.555Z,15.10
2022-11-16T02:03:54.390Z,15.10
2022-11-16T02:06:50.386Z,15.20
2022-11-16T02:09:53.684Z,15.20
2022-11-16T02:12:55.477Z,15.20
2022-11-16T02:15:30.425Z,15.10
2022-11-16T02:18:10.713Z,15.00
2022-11-16T02:21:07.476Z,15.00
2022-11-16T02:24:11.297Z,15.00
2022-11-16T02:26:52.171Z,15.10
2022-11-16T02:29:25.014Z,15.10
2022-11-16T02:32:00.541Z,15.10
2022-11-16T02:34:34.719Z,15.10
2022-11-16T02:37:05.846Z,15.00
2022-11-16T02:39:35.517Z,15.00
2022-11-16T02:42:05.157Z,15.00
2022-11-16T02:44:37.600Z,14.90
2022-11-16T02:47:09.350Z,15.00
2022-11-16T02:49:43.470Z,15.00
2022-11-16T02:52:14.360Z,14.90
2022-11-16T02:54:42.095Z,15.00
2022-11-16T02:57:30.033Z,14.90
2022-11-16T03:00:00.801Z,14.90
2022-11-16T03:02:33.739Z,14.90
2022-11-16T03:05:05.507Z,14.90
2022-11-16T03:07:37.556Z,14.80
2022-11-16T03:10:06.651Z,14.80
2022-11-16T03:12:36.066Z,14.80
2022-11-16T03:15:08.051Z,14.70
2022-11-16T03:17:41.296Z,14.80
2022-11-16T03:20:13.718Z,14.80
2022-11-16T03:22:43.949Z,14.90
2022-11-16T03:25:14.022Z,14.80
2022-11-16T03:27:48.484Z,14.70
2022-11-16T03:30:23.518Z,14.70
2022-11-16T03:32:57.528Z,14.70
2022-11-16T03:35:29.935Z,14.70
2022-11-16T03:38:00.421Z,14.70
2022-11-16T03:40:31.287Z,14.90
2022-11-16T03:43:00.478Z,14.70
2022-11-16T03:45:31.049Z,14.70
2022-11-16T03:47:58.892Z,14.70
2022-11-16T03:50:27.016Z,14.60
2022-11-16T03:52:54.797Z,14.70
2022-11-16T03:55:22.590Z,14.70
2022-11-16T03:57:50.436Z,14.50
2022-11-16T04:00:18.389Z,14.60
2022-11-16T04:02:47.506Z,14.60
2022-11-16T04:05:32.908Z,14.60
2022-11-16T04:08:18.280Z,14.60
2022-11-16T04:11:04.011Z,14.60
2022-11-16T04:13:51.778Z,14.60
2022-11-16T04:16:37.410Z,14.50
2022-11-16T04:19:23.924Z,14.50
2022-11-16T04:22:12.416Z,14.50
2022-11-16T04:24:42.597Z,14.50
2022-11-16T04:27:31.308Z,14.40
2022-11-16T04:30:02.165Z,14.40
2022-11-16T04:32:47.571Z,14.40
2022-11-16T04:35:34.323Z,14.40
2022-11-16T04:38:02.313Z,14.40
2022-11-16T04:40:30.153Z,14.30
2022-11-16T04:42:59.462Z,14.40
2022-11-16T04:45:46.144Z,14.30
2022-11-16T04:48:15.787Z,14.30
2022-11-16T04:50:45.193Z,14.30
2022-11-16T04:53:13.262Z,14.20
2022-11-16T04:55:41.073Z,14.30
2022-11-16T04:58:09.173Z,14.30
2022-11-16T05:00:37.009Z,14.30
2022-11-16T05:03:05.664Z,14.30
2022-11-16T05:05:33.474Z,14.30
2022-11-16T05:08:02.566Z,14.30
2022-11-16T05:10:30.377Z,14.20
2022-11-16T05:12:58.845Z,14.20
2022-11-16T05:15:26.660Z,14.20
2022-11-16T05:17:55.698Z,14.10
2022-11-16T05:20:40.917Z,14.20
2022-11-16T05:23:30.541Z,14.10
2022-11-16T05:25:58.310Z,14.10
2022-11-16T05:28:26.174Z,14.10
2022-11-16T05:30:53.962Z,14.00
2022-11-16T05:33:22.386Z,14.00
2022-11-16T05:35:51.366Z,14.00
2022-11-16T05:38:20.692Z,14.00
2022-11-16T05:40:48.484Z,13.90
2022-11-16T05:43:16.226Z,13.90
2022-11-16T05:45:44.269Z,13.90
2022-11-16T05:48:12.073Z,13.90
2022-11-16T05:50:42.732Z,13.80
2022-11-16T05:53:11.101Z,13.80
2022-11-16T05:55:40.265Z,13.80
2022-11-16T05:58:08.295Z,13.80
2022-11-16T06:00:36.081Z,13.80
2022-11-16T06:03:03.946Z,13.80
2022-11-16T06:05:35.105Z,13.70
2022-11-16T06:08:05.743Z,13.70
2022-11-16T06:10:33.582Z,13.60
2022-11-16T06:13:02.781Z,13.60
2022-11-16T06:15:30.617Z,13.50
2022-11-16T06:17:58.368Z,13.50
2022-11-16T06:20:26.188Z,13.50
2022-11-16T06:22:54.005Z,13.50
2022-11-16T06:25:21.873Z,13.40
2022-11-16T06:27:49.680Z,13.40
2022-11-16T06:30:19.025Z,13.30
2022-11-16T06:32:46.815Z,13.30
2022-11-16T06:35:14.587Z,13.30
2022-11-16T06:37:43.110Z,13.30
2022-11-16T06:40:12.010Z,13.30
2022-11-16T06:42:39.846Z,13.30
2022-11-16T06:45:08.525Z,13.30
2022-11-16T06:47:37.724Z,13.30
2022-11-16T06:50:06.090Z,13.30
2022-11-16T06:52:33.874Z,13.20
2022-11-16T06:55:01.643Z,13.20
2022-11-16T06:57:29.700Z,13.20
2022-11-16T06:59:57.413Z,13.20
2022-11-16T07:02:25.211Z,13.10
2022-11-16T07:04:56.943Z,13.00
2022-11-16T07:07:27.133Z,13.00
2022-11-16T07:09:55.001Z,13.10
2022-11-16T07:12:22.801Z,13.10
2022-11-16T07:14:50.586Z,13.10
2022-11-16T07:17:18.443Z,13.20
2022-11-16T07:19:46.227Z,13.20
2022-11-16T07:22:15.383Z,13.10
2022-11-16T07:24:43.148Z,13.10
2022-11-16T07:27:10.977Z,13.10
2022-11-16T07:29:38.763Z,13.00
2022-11-16T07:32:06.569Z,13.10
2022-11-16T07:34:34.505Z,13.00
2022-11-16T07:37:02.261Z,12.90
2022-11-16T07:39:31.416Z,13.10
2022-11-16T07:41:59.209Z,12.80
2022-11-16T07:44:26.998Z,12.80
2022-11-16T07:46:54.774Z,12.70
2022-11-16T07:49:22.583Z,12.70
2022-11-16T07:51:50.420Z,12.80
2022-11-16T07:54:18.130Z,12.90
2022-11-16T07:56:47.284Z,12.90
2022-11-16T07:59:15.058Z,12.90
2022-11-16T08:01:42.878Z,12.90
2022-11-16T08:04:10.702Z,12.80
2022-11-16T08:06:38.502Z,12.80
2022-11-16T08:09:06.271Z,12.80
2022-11-16T08:11:34.090Z,12.90
2022-11-16T08:14:03.311Z,12.90
2022-11-16T08:16:33.160Z,13.00
2022-11-16T08:19:02.207Z,12.90
2022-11-16T08:21:30.003Z,13.00
2022-11-16T08:23:58.805Z,13.00
2022-11-16T08:26:27.522Z,12.90
2022-11-16T08:28:56.615Z,12.90
2022-11-16T08:31:28.130Z,12.90
2022-11-16T08:33:56.572Z,13.00
2022-11-16T08:36:24.915Z,12.80
2022-11-16T08:38:53.825Z,12.80
2022-11-16T08:41:22.822Z,12.70
2022-11-16T08:43:53.252Z,12.80
2022-11-16T08:46:22.414Z,12.70
2022-11-16T08:48:56.588Z,12.80
2022-11-16T08:54:11.135Z,12.70
2022-11-16T08:56:38.966Z,12.80
2022-11-16T08:59:06.831Z,12.90
2022-11-16T09:01:34.741Z,12.90
2022-11-16T09:04:04.046Z,12.90
2022-11-16T09:06:32.115Z,12.70
2022-11-16T09:09:01.036Z,12.90
2022-11-16T09:11:29.069Z,12.80
2022-11-16T09:13:57.308Z,12.90
2022-11-16T09:16:26.580Z,12.70
2022-11-16T09:18:54.551Z,12.60
2022-11-16T09:21:25.322Z,13.40
2022-11-16T09:23:54.099Z,12.70
2022-11-16T09:26:23.906Z,12.80
2022-11-16T09:28:56.760Z,12.90
2022-11-16T09:31:24.747Z,12.80
2022-11-16T09:33:52.570Z,12.90
2022-11-16T09:36:20.582Z,12.80
2022-11-16T09:41:56.721Z,12.90
2022-11-16T09:44:40.823Z,12.90
2022-11-16T09:47:15.057Z,13.00
2022-11-16T09:49:48.346Z,13.30
2022-11-16T09:55:25.011Z,13.60
2022-11-16T09:57:56.419Z,13.50
2022-11-16T10:00:24.552Z,13.60
2022-11-16T10:03:01.880Z,13.80
2022-11-16T10:05:36.390Z,13.80
2022-11-16T10:08:11.953Z,13.80
2022-11-16T10:10:47.618Z,13.80
2022-11-16T10:13:27.767Z,13.80
2022-11-16T10:16:04.035Z,13.80
2022-11-16T10:18:44.366Z,14.00
2022-11-16T10:21:33.107Z,14.10
2022-11-16T10:24:24.914Z,14.10
2022-11-16T10:27:05.357Z,14.10
2022-11-16T10:29:49.472Z,14.20
2022-11-16T10:32:25.931Z,14.30
2022-11-16T10:34:56.008Z,14.30
2022-11-16T10:37:29.260Z,14.10
2022-11-16T10:39:57.040Z,14.20
2022-11-16T10:42:32.975Z,14.40
2022-11-16T10:45:07.775Z,14.50
2022-11-16T10:47:42.516Z,14.50
2022-11-16T10:50:32.308Z,14.50
2022-11-16T10:53:00.636Z,14.60
2022-11-16T10:55:29.650Z,14.50
2022-11-16T10:58:00.798Z,14.40
2022-11-16T11:00:41.849Z,14.30
2022-11-16T11:03:11.790Z,14.30
2022-11-16T11:05:49.299Z,14.20
2022-11-16T11:08:27.008Z,14.20
2022-11-16T11:11:23.403Z,14.30
2022-11-16T11:14:06.384Z,14.30
2022-11-16T11:16:34.188Z,14.20
2022-11-16T11:19:20.541Z,14.30
2022-11-16T11:21:49.169Z,14.30
2022-11-16T11:24:43.335Z,14.20
2022-11-16T11:27:06.697Z,14.30
2022-11-16T11:29:38.596Z,14.30
2022-11-16T11:32:09.066Z,14.20
2022-11-16T11:34:43.011Z,14.30
2022-11-16T11:37:16.803Z,14.30
2022-11-16T11:39:44.602Z,14.10
2022-11-16T11:42:24.079Z,14.00
2022-11-16T11:44:58.669Z,14.10
2022-11-16T11:50:36.036Z,14.30
2022-11-16T11:53:07.846Z,14.40
2022-11-16T11:55:36.012Z,14.30
2022-11-16T11:58:06.837Z,14.30
2022-11-16T12:00:43.114Z,14.30
2022-11-16T12:03:44.358Z,14.40
2022-11-16T12:06:19.953Z,14.30
2022-11-16T12:09:26.203Z,14.30
2022-11-16T12:12:04.434Z,14.30
2022-11-16T12:14:59.470Z,14.30
2022-11-16T12:17:37.260Z,14.20
2022-11-16T12:20:20.729Z,14.50
2022-11-16T12:23:30.350Z,14.30
2022-11-16T12:26:05.270Z,14.20
2022-11-16T12:28:51.011Z,14.30
2022-11-16T12:31:47.451Z,14.30
2022-11-16T12:34:28.348Z,14.30
2022-11-16T12:37:04.681Z,14.30
2022-11-16T12:39:36.216Z,14.40
2022-11-16T12:42:35.774Z,14.50
2022-11-16T12:45:18.405Z,14.50
2022-11-16T12:48:00.759Z,14.30
2022-11-16T12:50:45.230Z,14.40
2022-11-16T12:53:41.948Z,14.40
2022-11-16T12:56:18.508Z,14.40
2022-11-16T12:59:06.758Z,14.30
2022-11-16T13:01:38.835Z,14.50
2022-11-16T13:04:11.428Z,14.60
2022-11-16T13:06:47.242Z,14.50
2022-11-16T13:09:18.279Z,14.60
2022-11-16T13:11:50.423Z,14.60
2022-11-16T13:14:20.996Z,14.60
2022-11-16T13:16:50.611Z,14.50
2022-11-16T13:19:19.338Z,14.40
2022-11-16T13:21:59.807Z,14.50
2022-11-16T13:24:40.322Z,14.50
2022-11-16T13:27:28.091Z,14.50
2022-11-16T13:30:01.858Z,14.60
2022-11-16T13:32:44.442Z,14.60
2022-11-16T13:35:15.876Z,14.50
2022-11-16T13:37:46.867Z,14.60
2022-11-16T13:40:29.743Z,14.50
2022-11-16T13:43:05.027Z,14.50
2022-11-16T13:45:38.188Z,14.50
2022-11-16T13:48:18.198Z,14.50
2022-11-16T13:50:50.712Z,14.50
2022-11-16T13:56:15.941Z,14.40
2022-11-16T13:58:47.121Z,14.50
2022-11-16T14:01:15.790Z,14.60
2022-11-16T14:03:44.905Z,14.50
2022-11-16T14:06:57.986Z,14.60
2022-11-16T14:09:47.814Z,14.50
2022-11-16T14:12:52.880Z,14.50
2022-11-16T14:15:22.345Z,14.50
2022-11-16T14:17:52.240Z,14.60
2022-11-16T14:20:35.063Z,14.60
2022-11-16T14:23:12.993Z,14.60
2022-11-16T14:25:48.687Z,14.60
2022-11-16T14:28:35.563Z,14.50
2022-11-16T14:31:14.560Z,14.60
2022-11-16T14:33:42.703Z,14.60
2022-11-16T14:36:12.174Z,14.70
2022-11-16T14:38:42.797Z,14.60
2022-11-16T14:41:21.136Z,14.60
2022-11-16T14:43:51.395Z,14.50
2022-11-16T14:46:23.334Z,14.50
2022-11-16T14:48:51.281Z,14.50
2022-11-16T14:51:23.666Z,14.70
2022-11-16T14:53:55.736Z,14.60
2022-11-16T14:56:24.871Z,14.60
2022-11-16T14:58:54.723Z,14.60
2022-11-16T15:01:25.150Z,14.60
2022-11-16T15:03:57.130Z,14.70
2022-11-16T15:06:26.948Z,14.70
2022-11-16T15:08:58.837Z,14.70
2022-11-16T15:11:44.876Z,14.70
2022-11-16T15:14:15.539Z,14.70
2022-11-16T15:16:50.859Z,14.70
2022-11-16T15:19:18.987Z,14.70
2022-11-16T15:21:54.706Z,14.70
2022-11-16T15:24:30.628Z,14.70
2022-11-16T15:27:13.273Z,14.70
2022-11-16T15:29:41.082Z,14.70
2022-11-16T15:32:16.564Z,14.60
2022-11-16T15:34:46.770Z,14.70
2022-11-16T15:37:15.290Z,14.60
2022-11-16T15:39:43.740Z,14.60
2022-11-16T15:42:16.374Z,14.50
2022-11-16T15:44:45.043Z,14.40
2022-11-16T15:47:14.212Z,14.50
2022-11-16T15:49:43.510Z,14.50
2022-11-16T15:52:11.917Z,14.50
2022-11-16T15:54:53.658Z,14.40
2022-11-16T15:57:24.804Z,14.40
2022-11-16T15:59:55.455Z,14.40
2022-11-16T16:02:25.780Z,14.40
2022-11-16T16:04:53.579Z,14.30
2022-11-16T16:07:37.184Z,14.40
2022-11-16T16:10:23.778Z,14.40
2022-11-16T16:12:54.168Z,14.40
2022-11-16T16:15:24.759Z,14.30
2022-11-16T16:17:53.829Z,14.30
2022-11-16T16:20:23.882Z,14.30
2022-11-16T16:22:52.334Z,14.20
2022-11-16T16:25:31.313Z,14.20
2022-11-16T16:28:00.696Z,14.20
2022-11-16T16:30:30.478Z,14.20
2022-11-16T16:32:58.345Z,14.20
2022-11-16T16:35:27.199Z,14.10
2022-11-16T16:37:59.080Z,14.20
2022-11-16T16:40:27.400Z,14.10
2022-11-16T16:42:56.800Z,14.20
2022-11-16T16:45:34.998Z,14.40
2022-11-16T16:48:02.786Z,14.30
2022-11-16T16:50:30.622Z,14.10
2022-11-16T16:52:58.561Z,14.10
2022-11-16T16:55:26.344Z,14.10
2022-11-16T16:57:56.647Z,14.10
2022-11-16T17:00:24.686Z,14.10
2022-11-16T17:02:53.840Z,14.10
2022-11-16T17:05:21.661Z,14.10
2022-11-16T17:07:49.444Z,14.20
2022-11-16T17:10:18.038Z,14.10
2022-11-16T17:12:45.921Z,14.10
2022-11-16T17:15:18.084Z,14.10
2022-11-16T17:17:47.182Z,14.10
2022-11-16T17:20:16.830Z,14.10
2022-11-16T17:22:45.833Z,14.00
2022-11-16T17:25:14.896Z,14.00
2022-11-16T17:27:42.809Z,14.00
2022-11-16T17:30:11.868Z,14.10
2022-11-16T17:32:39.661Z,14.00
2022-11-16T17:35:07.906Z,14.00
2022-11-16T17:37:36.988Z,14.00
2022-11-16T17:40:05.669Z,13.90
2022-11-16T17:42:34.160Z,13.90
2022-11-16T17:45:02.128Z,13.90
2022-11-16T17:47:31.768Z,14.00
2022-11-16T17:49:59.558Z,13.90
2022-11-16T17:52:27.437Z,14.00
2022-11-16T17:54:57.003Z,14.00
2022-11-16T17:57:24.819Z,14.00
2022-11-16T17:59:52.623Z,14.00
2022-11-16T18:02:20.371Z,13.90
2022-11-16T18:04:51.034Z,13.90
2022-11-16T18:07:19.366Z,14.00
2022-11-16T18:09:47.235Z,13.90
2022-11-16T18:12:16.408Z,14.00
2022-11-16T18:14:59.914Z,13.80
2022-11-16T18:17:34.671Z,13.90
2022-11-16T18:20:02.552Z,14.00
2022-11-16T18:22:30.343Z,14.00
2022-11-16T18:24:58.117Z,14.00
2022-11-16T18:27:27.341Z,13.90
2022-11-16T18:29:55.255Z,14.00
2022-11-16T18:32:23.105Z,13.80
2022-11-16T18:34:50.891Z,13.80
2022-11-16T18:37:18.634Z,13.80
2022-11-16T18:39:46.399Z,13.80
2022-11-16T18:42:14.219Z,13.90
2022-11-16T18:44:43.300Z,13.90
2022-11-16T18:47:11.049Z,13.80
2022-11-16T18:49:38.879Z,13.80
2022-11-16T18:52:06.646Z,13.80
2022-11-16T18:54:34.434Z,13.90
2022-11-16T18:57:02.235Z,13.80
2022-11-16T18:59:29.994Z,13.80
2022-11-16T19:01:59.122Z,13.80
2022-11-16T19:04:28.558Z,13.70
2022-11-16T19:06:56.514Z,13.70
2022-11-16T19:09:24.315Z,13.70
2022-11-16T19:11:52.111Z,13.80
2022-11-16T19:14:19.893Z,13.80
2022-11-16T19:16:54.131Z,13.60
2022-11-16T19:19:27.688Z,13.70
2022-11-16T19:21:56.870Z,13.70
2022-11-16T19:24:24.894Z,13.70
2022-11-16T19:26:53.535Z,13.70
2022-11-16T19:29:21.333Z,13.80
2022-11-16T19:31:49.127Z,13.70
2022-11-16T19:34:16.915Z,13.80
2022-11-16T19:36:46.025Z,13.80
2022-11-16T19:39:19.297Z,13.80
2022-11-16T19:41:47.613Z,13.70
2022-11-16T19:44:15.834Z,13.70
2022-11-16T19:46:43.739Z,13.80
2022-11-16T19:49:19.617Z,13.80
2022-11-16T19:51:49.664Z,13.90
2022-11-16T19:54:17.524Z,13.90
2022-11-16T19:56:49.334Z,13.80
2022-11-16T19:59:19.933Z,13.90
2022-11-16T20:01:47.716Z,13.80
2022-11-16T20:04:15.858Z,13.80
2022-11-16T20:06:43.651Z,13.80
2022-11-16T20:09:12.956Z,13.80
2022-11-16T20:11:42.836Z,13.70
2022-11-16T20:14:13.650Z,13.70
2022-11-16T20:16:43.385Z,13.80
2022-11-16T20:19:11.946Z,13.80
2022-11-16T20:21:41.401Z,13.90
2022-11-16T20:24:13.172Z,13.90
2022-11-16T20:26:43.771Z,14.00
2022-11-16T20:29:12.070Z,14.00
2022-11-16T20:31:42.624Z,13.90
2022-11-16T20:34:13.933Z,14.00
2022-11-16T20:36:43.214Z,14.00
2022-11-16T20:39:15.365Z,14.00
2022-11-16T20:41:43.918Z,14.00
2022-11-16T20:44:16.538Z,14.00
2022-11-16T20:46:45.120Z,14.00
2022-11-16T20:49:13.101Z,13.90
2022-11-16T20:51:41.107Z,13.90
2022-11-16T20:54:08.971Z,13.90
2022-11-16T20:56:38.207Z,13.90
2022-11-16T20:59:06.191Z,13.80
2022-11-16T21:01:34.142Z,13.90
2022-11-16T21:04:04.537Z,13.90
2022-11-16T21:06:33.131Z,13.90
2022-11-16T21:09:01.245Z,14.00
2022-11-16T21:11:31.049Z,14.00
2022-11-16T21:14:17.506Z,14.10
2022-11-16T21:16:45.700Z,14.10
2022-11-16T21:19:13.667Z,14.10
2022-11-16T21:21:41.862Z,14.10
2022-11-16T21:24:10.159Z,14.00
2022-11-16T21:26:38.607Z,14.10
2022-11-16T21:29:07.789Z,14.10
2022-11-16T21:31:37.010Z,14.10
2022-11-16T21:34:05.797Z,14.00
2022-11-16T21:36:34.289Z,14.00
2022-11-16T21:39:02.154Z,14.00
2022-11-16T21:41:30.067Z,14.00
2022-11-16T21:43:57.935Z,14.10
2022-11-16T21:46:28.182Z,14.00
2022-11-16T21:48:56.918Z,13.90
2022-11-16T21:51:26.879Z,14.00
2022-11-16T21:53:54.953Z,14.00
2022-11-16T21:56:24.251Z,14.00
2022-11-16T21:58:53.194Z,14.00
2022-11-16T22:01:21.882Z,13.90
2022-11-16T22:04:11.355Z,13.90
2022-11-16T22:06:56.849Z,14.10
2022-11-16T22:09:24.678Z,13.90
2022-11-16T22:11:52.437Z,13.80
2022-11-16T22:14:20.161Z,13.70
2022-11-16T22:16:47.939Z,13.70
2022-11-16T22:19:17.080Z,13.60
2022-11-16T22:21:44.910Z,13.60
2022-11-16T22:24:12.622Z,13.70
2022-11-16T22:26:40.993Z,13.60
2022-11-16T22:29:08.894Z,13.60
2022-11-16T22:31:37.063Z,13.60
2022-11-16T22:34:04.930Z,13.60
2022-11-16T22:36:34.019Z,13.40
2022-11-16T22:39:01.989Z,13.40
2022-11-16T22:41:29.774Z,13.50
2022-11-16T22:43:57.516Z,13.30
2022-11-16T22:46:25.336Z,13.40
2022-11-16T22:48:53.116Z,13.30
2022-11-16T22:51:22.660Z,13.40
2022-11-16T22:53:55.293Z,13.30
2022-11-16T22:56:23.277Z,13.30
2022-11-16T22:58:51.331Z,13.20
2022-11-16T23:01:19.819Z,13.30
2022-11-16T23:03:53.079Z,13.20
2022-11-16T23:06:21.068Z,13.20
2022-11-16T23:08:48.830Z,13.20
2022-11-16T23:11:51.187Z,13.10
2022-11-16T23:14:36.883Z,13.20
2022-11-16T23:17:05.266Z,13.00
2022-11-16T23:19:51.916Z,13.00
2022-11-16T23:22:38.984Z,13.10
2022-11-16T23:25:26.343Z,13.10
2022-11-16T23:27:59.914Z,13.00
2022-11-16T23:30:28.121Z,13.10
2022-11-16T23:32:55.926Z,13.00
2022-11-16T23:35:24.011Z,12.90
2022-11-16T23:37:55.958Z,12.90
2022-11-16T23:40:25.774Z,12.90
2022-11-16T23:43:13.210Z,12.90
2022-11-16T23:45:42.154Z,12.90
2022-11-16T23:48:11.078Z,12.90
2022-11-16T23:50:39.316Z,12.90
2022-11-16T23:53:08.879Z,12.90
2022-11-16T23:55:38.695Z,12.80
2022-11-16T23:58:12.190Z,13.00
